Time;durP1;ratioP1;P1;durP2;ratioP2;P2;SDS_P1;SDS_P2;PMS_P1;PMS_P2;Temp;Humidity;BMP_temperature;BMP_pressure;BME280_temperature;BME280_humidity;BME280_pressure;Samples;Min_cycle;Max_cycle;Signal;HPM_P1;HPM_P2
2023/03/27 00:02:19;;;;;;;;;1.00;1.00;;;;;8.80;100.00;101267.13;5065230;28;45478;-77
2023/03/27 00:04:44;;;;;;;;;1.67;0.00;;;;;8.77;100.00;101269.38;5067008;27;47251;-74
2023/03/27 00:07:11;;;;;;;;;2.00;2.00;;;;;8.81;100.00;101276.19;5063648;28;45308;-75
2023/03/27 00:09:38;;;;;;;;;0.00;0.00;;;;;8.75;100.00;101287.84;5071841;28;45462;-75
2023/03/27 00:12:04;;;;;;;;;4.00;0.67;;;;;8.71;100.00;101302.91;5065478;28;46122;-77
2023/03/27 00:14:30;;;;;;;;;0.67;0.33;;;;;8.62;100.00;101305.72;5061480;28;46502;-74
2023/03/27 00:16:58;;;;;;;;;1.00;1.00;;;;;8.54;100.00;101310.41;5070380;28;45418;-76
2023/03/27 00:19:25;;;;;;;;;0.67;0.67;;;;;8.40;100.00;101314.75;5071145;28;45405;-77
2023/03/27 00:21:50;;;;;;;;;3.00;1.33;;;;;8.31;100.00;101322.13;5074499;28;45394;-77
2023/03/27 00:24:16;;;;;;;;;2.00;0.67;;;;;8.28;100.00;101339.72;5068232;28;47177;-76
2023/03/27 00:26:41;;;;;;;;;1.00;0.00;;;;;8.24;100.00;101345.75;5073009;28;45551;-77
2023/03/27 00:29:07;;;;;;;;;0.00;0.00;;;;;8.27;100.00;101345.38;5078924;27;45351;-77
2023/03/27 00:31:32;;;;;;;;;1.00;1.00;;;;;8.18;100.00;101325.44;5086727;27;45673;-76
2023/03/27 00:33:58;;;;;;;;;1.00;0.33;;;;;8.28;100.00;101356.13;5100663;27;45279;-80
2023/03/27 00:36:23;;;;;;;;;3.00;2.00;;;;;8.23;100.00;101350.38;5076860;27;45802;-79
2023/03/27 00:38:51;;;;;;;;;1.33;1.00;;;;;8.27;100.00;101351.69;5095136;27;45663;-78
2023/03/27 00:41:18;;;;;;;;;0.00;0.00;;;;;8.41;100.00;101371.09;5094616;27;45777;-77
2023/03/27 00:43:44;;;;;;;;;1.00;0.67;;;;;8.19;100.00;101329.00;5083178;27;48171;-78
2023/03/27 00:46:26;;;;;;;;;4.00;2.00;;;;;8.41;100.00;101373.81;5093153;27;45347;-78
2023/03/27 00:48:53;;;;;;;;;0.00;0.00;;;;;8.35;100.00;101369.06;5105504;27;45483;-77
2023/03/27 00:51:22;;;;;;;;;0.00;0.00;;;;;8.36;100.00;101371.63;5094486;27;45398;-79
2023/03/27 00:53:50;;;;;;;;;0.33;0.33;;;;;8.27;100.00;101368.09;5111589;27;48521;-78
2023/03/27 00:56:16;;;;;;;;;2.00;2.00;;;;;8.30;100.00;101373.19;5083980;27;45919;-77
2023/03/27 00:58:47;;;;;;;;;1.00;1.00;;;;;8.30;100.00;101375.09;5083342;27;45580;-77
2023/03/27 01:01:14;;;;;;;;;3.67;2.00;;;;;8.39;100.00;101392.28;5098529;27;45395;-78
2023/03/27 01:03:43;;;;;;;;;1.67;1.00;;;;;8.38;100.00;101405.09;5107533;27;46154;-77
2023/03/27 01:06:12;;;;;;;;;0.00;0.00;;;;;8.34;100.00;101402.88;5104939;27;45541;-78
2023/03/27 01:08:41;;;;;;;;;2.67;1.33;;;;;8.26;100.00;101393.72;5069287;27;45408;-74
2023/03/27 01:11:44;;;;;;;;;1.67;1.67;;;;;8.24;100.00;101412.16;5090664;27;45899;-76
2023/03/27 01:14:15;;;;;;;;;3.00;1.00;;;;;8.18;100.00;101412.88;5092697;27;46208;-75
2023/03/27 01:17:15;;;;;;;;;1.67;0.67;;;;;8.06;100.00;101423.31;5071289;27;45449;-74
2023/03/27 01:20:13;;;;;;;;;2.00;1.00;;;;;7.99;100.00;101435.13;5093868;27;45789;-75
2023/03/27 01:22:57;;;;;;;;;2.00;1.00;;;;;7.86;100.00;101433.81;5096648;27;45760;-74
2023/03/27 01:25:45;;;;;;;;;4.00;2.00;;;;;7.76;100.00;101439.44;5099857;27;46288;-75
2023/03/27 01:28:19;;;;;;;;;3.00;2.00;;;;;7.69;100.00;101445.78;5097722;27;45397;-75
2023/03/27 01:31:11;;;;;;;;;2.67;2.00;;;;;7.61;100.00;101441.19;5080311;27;45425;-73
2023/03/27 01:33:45;;;;;;;;;4.00;2.00;;;;;7.51;100.00;101433.16;5091079;27;45498;-77
2023/03/27 01:36:33;;;;;;;;;4.67;4.00;;;;;7.41;100.00;101441.53;5072993;27;46985;-74
2023/03/27 01:39:17;;;;;;;;;6.00;4.33;;;;;7.32;100.00;101449.88;5052333;28;45459;-74
2023/03/27 01:41:55;;;;;;;;;3.00;1.00;;;;;7.20;100.00;101452.97;5072049;28;45502;-74
2023/03/27 01:44:46;;;;;;;;;2.33;2.00;;;;;7.14;100.00;101450.03;5088197;27;45350;-75
2023/03/27 01:47:32;;;;;;;;;4.67;3.00;;;;;7.14;100.00;101461.81;5080772;27;46197;-74
2023/03/27 01:50:09;;;;;;;;;2.67;1.33;;;;;7.13;100.00;101460.09;5079833;27;45565;-75
2023/03/27 01:52:40;;;;;;;;;3.33;2.00;;;;;7.15;100.00;101466.22;5076597;27;45447;-76
2023/03/27 01:55:14;;;;;;;;;3.33;0.67;;;;;7.15;100.00;101466.22;5071683;27;45476;-75
2023/03/27 01:58:03;;;;;;;;;1.00;1.00;;;;;7.20;100.00;101468.44;5075012;28;45800;-75
2023/03/27 02:00:34;;;;;;;;;1.67;1.67;;;;;7.21;100.00;101465.56;5086183;27;45770;-75
2023/03/27 02:03:08;;;;;;;;;1.33;1.33;;;;;7.25;100.00;101469.66;5069138;27;45458;-76
2023/03/27 02:06:14;;;;;;;;;4.67;2.00;;;;;7.32;100.00;101471.72;5063782;28;47188;-75
2023/03/27 02:08:57;;;;;;;;;3.00;2.00;;;;;7.18;100.00;101444.06;5043275;28;46248;-76
2023/03/27 02:11:28;;;;;;;;;3.67;2.00;;;;;7.43;100.00;101476.84;5071963;27;45508;-75
2023/03/27 02:14:19;;;;;;;;;4.67;2.33;;;;;7.53;100.00;101479.38;5072767;27;45837;-75
2023/03/27 02:16:53;;;;;;;;;4.33;1.67;;;;;7.58;100.00;101477.84;5069799;27;45979;-75
2023/03/27 02:19:28;;;;;;;;;3.67;1.33;;;;;7.63;100.00;101479.22;5085985;27;46501;-76
2023/03/27 02:21:54;;;;;;;;;3.00;3.00;;;;;7.68;100.00;101488.63;5072003;27;45579;-75
2023/03/27 02:24:19;;;;;;;;;2.67;1.67;;;;;7.72;100.00;101492.69;5073491;27;45468;-75
2023/03/27 02:26:52;;;;;;;;;5.00;2.00;;;;;7.76;100.00;101495.94;5057590;27;46212;-75
2023/03/27 02:29:47;;;;;;;;;4.00;1.67;;;;;7.84;100.00;101500.53;5084825;27;46146;-75
2023/03/27 02:32:24;;;;;;;;;3.00;3.00;;;;;7.87;100.00;101500.19;5092572;27;45419;-76
2023/03/27 02:35:14;;;;;;;;;3.00;1.33;;;;;7.82;100.00;101508.06;5082049;27;45454;-77
2023/03/27 02:38:03;;;;;;;;;1.00;1.00;;;;;7.83;100.00;101507.00;5087675;27;45759;-76
2023/03/27 02:41:02;;;;;;;;;1.67;1.67;;;;;7.84;100.00;101514.19;5092354;27;45989;-75
2023/03/27 02:43:46;;;;;;;;;1.33;1.33;;;;;7.73;100.00;101502.59;5092298;27;45414;-75
2023/03/27 02:46:25;;;;;;;;;2.33;1.67;;;;;7.83;100.00;101513.34;5072557;27;45556;-75
2023/03/27 02:48:55;;;;;;;;;2.00;0.33;;;;;7.86;100.00;101523.94;5061688;27;46796;-75
2023/03/27 02:51:37;;;;;;;;;0.33;0.33;;;;;7.71;100.00;101504.66;5090718;27;45470;-74
2023/03/27 02:54:21;;;;;;;;;2.00;2.00;;;;;7.80;100.00;101519.16;5093739;27;45733;-75
2023/03/27 02:56:53;;;;;;;;;3.00;1.00;;;;;7.80;100.00;101524.63;5083334;27;45880;-74
2023/03/27 02:59:34;;;;;;;;;0.67;0.67;;;;;7.78;100.00;101526.66;5089863;27;45835;-74
2023/03/27 03:02:02;;;;;;;;;3.00;2.00;;;;;7.76;100.00;101535.00;5083046;27;46084;-75
2023/03/27 03:04:33;;;;;;;;;2.00;2.00;;;;;7.70;100.00;101526.66;5080770;27;45821;-75
2023/03/27 03:07:05;;;;;;;;;1.00;1.00;;;;;7.59;100.00;101523.25;5103007;27;45496;-74
2023/03/27 03:09:31;;;;;;;;;2.67;1.33;;;;;7.45;100.00;101521.19;5094859;27;45478;-74
2023/03/27 03:11:56;;;;;;;;;1.00;1.00;;;;;7.46;100.00;101544.72;5076309;27;46973;-76
2023/03/27 03:14:28;;;;;;;;;2.00;2.00;;;;;7.43;100.00;101542.34;5104926;27;45769;-78
2023/03/27 03:16:54;;;;;;;;;2.67;1.00;;;;;7.42;100.00;101549.69;5074188;27;45652;-77
2023/03/27 03:19:20;;;;;;;;;3.67;0.67;;;;;7.30;100.00;101528.34;5090613;27;45624;-78
2023/03/27 03:21:48;;;;;;;;;2.33;1.00;;;;;7.36;100.00;101552.22;5095045;27;46867;-78
2023/03/27 03:24:13;;;;;;;;;1.00;1.00;;;;;7.28;100.00;101544.88;5075166;27;45813;-78
2023/03/27 03:26:39;;;;;;;;;2.00;2.00;;;;;7.31;100.00;101546.41;5092118;27;45787;-79
2023/03/27 03:29:04;;;;;;;;;0.00;0.00;;;;;7.35;100.00;101548.63;5091305;27;45527;-78
2023/03/27 03:31:41;;;;;;;;;1.67;0.67;;;;;7.37;100.00;101554.78;5085217;27;46066;-79
2023/03/27 03:34:08;;;;;;;;;2.00;1.33;;;;;7.38;100.00;101563.81;5090092;27;45426;-78
2023/03/27 03:36:34;;;;;;;;;2.67;1.33;;;;;7.36;100.00;101565.84;5091280;27;45863;-77
2023/03/27 03:39:00;;;;;;;;;2.00;1.00;;;;;7.32;100.00;101561.75;5068262;27;45734;-78
2023/03/27 03:41:25;;;;;;;;;3.33;1.00;;;;;7.48;100.00;101577.31;5084380;27;46436;-76
2023/03/27 03:43:50;;;;;;;;;3.00;1.33;;;;;7.44;100.00;101579.53;5085479;27;45409;-77
2023/03/27 03:46:16;;;;;;;;;3.00;1.00;;;;;7.49;100.00;101596.25;5093404;27;45097;-77
2023/03/27 03:48:41;;;;;;;;;1.00;0.33;;;;;7.53;100.00;101604.94;5091765;27;45429;-77
2023/03/27 03:51:06;;;;;;;;;3.67;1.00;;;;;7.50;100.00;101595.22;5081380;27;47029;-75
2023/03/27 03:53:32;;;;;;;;;2.00;2.00;;;;;7.47;100.00;101592.84;5085874;27;45370;-79
2023/03/27 03:55:57;;;;;;;;;1.00;0.67;;;;;7.59;100.00;101604.28;5089205;27;45366;-79
2023/03/27 03:58:23;;;;;;;;;2.67;2.00;;;;;7.60;100.00;101617.78;5092945;27;45757;-80
2023/03/27 04:00:48;;;;;;;;;3.33;1.00;;;;;7.58;100.00;101619.81;5092589;27;46655;-80
2023/03/27 04:03:13;;;;;;;;;5.00;1.00;;;;;7.59;100.00;101621.53;5091946;27;45348;-80
2023/03/27 04:05:39;;;;;;;;;2.00;1.00;;;;;7.63;100.00;101622.03;5088781;27;45756;-80
2023/03/27 04:08:08;;;;;;;;;1.33;1.33;;;;;7.66;100.00;101623.56;5070995;28;46523;-80
2023/03/27 04:10:36;;;;;;;;;2.00;1.00;;;;;7.73;100.00;101638.25;5081864;27;46590;-81
2023/03/27 04:13:02;;;;;;;;;2.00;2.00;;;;;7.74;100.00;101631.78;5060403;28;45496;-81
2023/03/27 04:15:27;;;;;;;;;2.00;2.00;;;;;7.80;100.00;101639.31;5084518;27;45307;-80
2023/03/27 04:17:53;;;;;;;;;2.33;2.33;;;;;7.79;100.00;101634.84;5079308;27;45746;-79
2023/03/27 04:20:19;;;;;;;;;3.00;1.00;;;;;7.59;100.00;101616.06;5064262;27;48129;-79
2023/03/27 04:22:47;;;;;;;;;1.33;1.33;;;;;7.74;100.00;101649.03;5091382;27;45429;-79
2023/03/27 04:25:15;;;;;;;;;1.67;1.67;;;;;7.76;100.00;101654.31;5090136;27;45495;-77
2023/03/27 04:27:42;;;;;;;;;2.00;1.00;;;;;7.64;100.00;101631.09;5093145;27;45365;-79
2023/03/27 04:30:09;;;;;;;;;2.00;1.00;;;;;7.70;100.00;101652.25;5085461;27;46248;-79
2023/03/27 04:32:35;;;;;;;;;1.00;1.00;;;;;7.83;100.00;101668.13;5090670;27;45895;-80
2023/03/27 04:35:01;;;;;;;;;2.00;1.00;;;;;7.83;100.00;101671.75;5091226;27;45472;-80
2023/03/27 04:37:27;;;;;;;;;9.67;7.00;;;;;7.88;100.00;101679.44;5072907;27;45881;-81
2023/03/27 04:39:53;;;;;;;;;6.33;5.33;;;;;7.85;100.00;101669.69;5071233;27;46387;-80
2023/03/27 04:42:22;;;;;;;;;5.67;3.00;;;;;7.90;100.00;101678.25;5082725;27;46694;-81
2023/03/27 04:44:49;;;;;;;;;5.00;3.00;;;;;7.77;100.00;101672.41;5087850;27;45980;-80
2023/03/27 04:47:15;;;;;;;;;3.00;1.67;;;;;7.76;100.00;101678.88;5061750;27;47317;-79
2023/03/27 04:49:45;;;;;;;;;2.33;2.33;;;;;7.85;100.00;101685.22;5062476;27;46422;-78
2023/03/27 04:52:13;;;;;;;;;1.67;1.00;;;;;7.72;100.00;101681.06;5081045;27;45644;-82
2023/03/27 04:54:39;;;;;;;;;4.67;3.67;;;;;7.79;100.00;101686.75;5068605;27;45701;-79
2023/03/27 04:57:06;;;;;;;;;7.00;4.67;;;;;7.83;100.00;101704.50;5079643;27;45761;-79
2023/03/27 04:59:32;;;;;;;;;7.67;4.00;;;;;7.84;100.00;101708.94;5069687;27;47132;-80
2023/03/27 05:02:01;;;;;;;;;7.00;2.33;;;;;7.89;100.00;101714.75;5084073;27;45861;-79
2023/03/27 05:04:30;;;;;;;;;7.00;5.67;;;;;7.90;100.00;101708.28;5086356;27;45815;-81
2023/03/27 05:06:58;;;;;;;;;2.00;1.00;;;;;7.90;100.00;101715.59;5086428;27;45472;-81
2023/03/27 05:09:23;;;;;;;;;3.00;3.00;;;;;7.87;100.00;101722.25;5092556;27;45508;-80
2023/03/27 05:11:49;;;;;;;;;1.00;1.00;;;;;7.89;100.00;101725.69;5084172;27;45460;-84
2023/03/27 05:14:16;;;;;;;;;6.00;3.67;;;;;7.95;100.00;101729.63;5085258;27;45518;-79
2023/03/27 05:16:42;;;;;;;;;4.00;2.67;;;;;7.97;100.00;101729.47;5085151;27;45469;-77
2023/03/27 05:19:07;;;;;;;;;4.00;0.67;;;;;8.00;100.00;101720.94;5085834;27;45488;-79
2023/03/27 05:21:33;;;;;;;;;3.00;2.00;;;;;8.02;100.00;101724.34;5082403;27;45833;-78
2023/03/27 05:23:58;;;;;;;;;5.00;2.00;;;;;8.01;100.00;101722.63;5081472;27;45773;-77
2023/03/27 05:26:23;;;;;;;;;3.00;1.00;;;;;8.03;100.00;101740.56;5092476;27;45402;-79
2023/03/27 05:28:51;;;;;;;;;1.67;1.67;;;;;8.01;100.00;101734.41;5085113;27;46295;-80
2023/03/27 05:31:18;;;;;;;;;4.67;3.00;;;;;7.99;100.00;101738.34;5065101;28;45508;-79
2023/03/27 05:33:44;;;;;;;;;1.67;1.67;;;;;8.02;100.00;101729.81;5067414;28;45511;-85
2023/03/27 05:36:10;;;;;;;;;1.33;1.33;;;;;7.95;100.00;101722.28;5048254;28;46177;-79
2023/03/27 05:38:36;;;;;;;;;5.00;1.00;;;;;8.12;100.00;101753.22;5073690;27;46233;-80
2023/03/27 05:41:02;;;;;;;;;5.67;3.00;;;;;8.08;100.00;101748.25;5082475;27;45658;-81
2023/03/27 05:43:28;;;;;;;;;3.00;2.00;;;;;8.12;100.00;101758.66;5066680;27;45881;-80
2023/03/27 05:45:53;;;;;;;;;1.00;1.00;;;;;8.07;100.00;101738.38;5060723;28;46437;-81
2023/03/27 05:48:19;;;;;;;;;5.67;2.33;;;;;8.17;100.00;101758.16;5042414;27;46117;-82
2023/03/27 05:50:45;;;;;;;;;2.67;1.00;;;;;8.23;100.00;101764.84;5073769;27;46898;-81
2023/03/27 05:53:10;;;;;;;;;0.00;0.00;;;;;8.13;100.00;101759.56;5061092;27;45718;-82
2023/03/27 05:55:39;;;;;;;;;8.00;6.33;;;;;8.00;100.00;101732.69;5074976;27;45952;-80
2023/03/27 05:58:08;;;;;;;;;1.33;1.00;;;;;8.07;100.00;101749.28;5055382;27;45536;-81
2023/03/27 06:00:35;;;;;;;;;3.67;1.67;;;;;8.21;100.00;101761.44;5053208;28;45862;-77
2023/03/27 06:03:07;;;;;;;;;1.33;1.33;;;;;8.07;100.00;101749.28;5068642;28;45672;-81
2023/03/27 06:05:39;;;;;;;;;2.67;2.67;;;;;8.23;100.00;101781.25;5066382;27;45497;-78
2023/03/27 06:08:07;;;;;;;;;1.33;0.33;;;;;8.20;100.00;101779.69;5078460;27;46352;-80
2023/03/27 06:10:55;;;;;;;;;3.00;2.00;;;;;8.21;100.00;101788.75;5069762;27;45741;-76
2023/03/27 06:13:20;;;;;;;;;4.33;1.00;;;;;8.26;100.00;101792.72;5050854;28;45555;-81
2023/03/27 06:15:46;;;;;;;;;1.00;1.00;;;;;8.28;100.00;101795.28;5065138;27;45393;-78
2023/03/27 06:18:11;;;;;;;;;2.00;1.00;;;;;8.27;100.00;101802.59;5068470;27;46040;-77
2023/03/27 06:20:37;;;;;;;;;2.00;2.00;;;;;8.27;100.00;101799.88;5063517;27;45829;-78
2023/03/27 06:23:05;;;;;;;;;1.00;1.00;;;;;8.31;100.00;101811.34;5060610;27;45692;-77
2023/03/27 06:25:32;;;;;;;;;1.00;1.00;;;;;8.36;100.00;101797.16;5057887;27;46454;-77
2023/03/27 06:27:57;;;;;;;;;2.00;1.00;;;;;8.39;100.00;101803.13;5060080;27;46166;-77
2023/03/27 06:30:25;;;;;;;;;1.00;1.00;;;;;8.41;100.00;101811.16;5083216;27;45973;-77
2023/03/27 06:32:58;;;;;;;;;4.00;4.00;;;;;8.46;100.00;101819.75;5091370;27;45826;-77
2023/03/27 06:35:30;;;;;;;;;3.00;3.00;;;;;8.54;100.00;101822.50;5072219;27;47119;-76
2023/03/27 06:37:58;;;;;;;;;3.00;2.00;;;;;8.53;100.00;101818.03;5074397;27;47676;-77
2023/03/27 06:40:26;;;;;;;;;2.00;1.00;;;;;8.64;100.00;101822.34;5071140;27;46660;-77
2023/03/27 06:42:55;;;;;;;;;1.00;0.00;;;;;8.70;100.00;101829.00;5092005;27;45934;-79
2023/03/27 06:45:27;;;;;;;;;4.00;2.33;;;;;8.79;100.00;101833.47;5087622;27;45835;-80
2023/03/27 06:47:55;;;;;;;;;1.00;1.00;;;;;8.83;100.00;101832.09;5090798;27;45637;-76
2023/03/27 06:50:21;;;;;;;;;2.33;1.00;;;;;8.91;100.00;101840.31;5085989;27;45855;-77
2023/03/27 06:52:47;;;;;;;;;3.00;2.00;;;;;9.01;100.00;101840.13;5089100;27;45726;-76
2023/03/27 06:55:17;;;;;;;;;1.00;1.00;;;;;9.14;100.00;101845.94;5088276;27;47025;-77
2023/03/27 06:57:44;;;;;;;;;4.00;1.00;;;;;9.26;100.00;101849.16;5092260;27;46803;-77
2023/03/27 07:00:22;;;;;;;;;1.67;1.33;;;;;9.36;100.00;101859.94;5062612;27;45367;-76
2023/03/27 07:02:53;;;;;;;;;6.00;3.33;;;;;9.33;100.00;101828.28;5074429;27;46442;-76
2023/03/27 07:05:19;;;;;;;;;3.33;2.00;;;;;9.61;100.00;101838.84;5091002;27;45757;-76
2023/03/27 07:07:46;;;;;;;;;3.67;3.67;;;;;9.94;100.00;101846.94;5065939;27;47354;-76
2023/03/27 07:10:12;;;;;;;;;4.00;1.00;;;;;10.12;100.00;101852.19;5099757;27;45561;-75
2023/03/27 07:12:38;;;;;;;;;1.67;1.67;;;;;10.31;100.00;101850.00;5076458;27;45680;-76
2023/03/27 07:15:05;;;;;;;;;5.67;2.67;;;;;10.46;100.00;101841.91;5084769;27;45557;-76
2023/03/27 07:17:32;;;;;;;;;4.33;3.00;;;;;10.73;100.00;101863.34;5075234;27;45542;-75
2023/03/27 07:19:57;;;;;;;;;4.00;2.00;;;;;10.97;100.00;101858.66;5101255;27;45776;-76
2023/03/27 07:22:23;;;;;;;;;3.00;3.00;;;;;11.33;100.00;101855.25;5075192;27;45874;-76
2023/03/27 07:24:49;;;;;;;;;6.33;2.00;;;;;12.65;100.00;101861.91;5096039;27;45434;-76
2023/03/27 07:27:15;;;;;;;;;4.00;3.00;;;;;13.37;100.00;101873.88;5078617;27;46836;-77
2023/03/27 07:29:41;;;;;;;;;5.00;3.00;;;;;14.28;100.00;101862.75;5095042;27;45423;-78
2023/03/27 07:32:06;;;;;;;;;3.67;0.67;;;;;14.52;100.00;101846.69;5092176;27;45468;-77
2023/03/27 07:34:32;;;;;;;;;1.67;0.67;;;;;14.40;100.00;101843.69;5080625;27;46198;-77
2023/03/27 07:36:58;;;;;;;;;1.67;1.67;;;;;14.20;100.00;101840.81;5098665;27;46010;-77
2023/03/27 07:39:24;;;;;;;;;2.00;1.33;;;;;13.75;100.00;101835.72;5092921;27;45828;-78
2023/03/27 07:41:51;;;;;;;;;1.00;1.00;;;;;13.52;100.00;101863.59;5092746;27;45752;-76
2023/03/27 07:44:17;;;;;;;;;2.33;2.00;;;;;13.16;100.00;101858.16;5092218;27;45482;-78
2023/03/27 07:46:43;;;;;;;;;1.67;1.00;;;;;12.77;100.00;101863.13;5077966;27;45374;-77
2023/03/27 07:49:09;;;;;;;;;0.00;0.00;;;;;12.33;100.00;101869.59;5082315;27;45791;-75
2023/03/27 07:51:36;;;;;;;;;1.00;1.00;;;;;11.96;100.00;101868.69;5093122;27;45532;-79
2023/03/27 07:54:03;;;;;;;;;2.33;1.00;;;;;11.73;100.00;101874.28;5087858;27;46380;-79
2023/03/27 07:56:32;;;;;;;;;2.00;1.00;;;;;11.64;100.00;101881.75;5091025;27;45896;-80
2023/03/27 07:58:57;;;;;;;;;1.00;1.00;;;;;11.43;100.00;101879.72;5073831;27;45636;-81
2023/03/27 08:01:27;;;;;;;;;0.00;0.00;;;;;11.12;99.93;101888.91;5092952;27;45728;-81
2023/03/27 08:03:52;;;;;;;;;1.67;1.33;;;;;11.11;100.00;101890.81;5095066;27;45987;-78
2023/03/27 08:06:18;;;;;;;;;5.00;2.00;;;;;11.00;100.00;101884.91;5086196;27;46778;-76
2023/03/27 08:08:44;;;;;;;;;2.00;1.67;;;;;10.74;100.00;101869.66;5072023;27;45638;-75
2023/03/27 08:11:09;;;;;;;;;0.67;0.33;;;;;10.81;100.00;101892.59;5073339;27;45689;-80
2023/03/27 08:13:35;;;;;;;;;3.00;2.00;;;;;10.82;100.00;101882.47;5093557;27;45654;-81
2023/03/27 08:16:08;;;;;;;;;1.33;1.00;;;;;10.82;100.00;101898.94;5085231;27;48275;-80
2023/03/27 08:18:35;;;;;;;;;1.00;1.00;;;;;10.70;100.00;101914.97;5091968;27;45741;-79
2023/03/27 08:21:02;;;;;;;;;2.00;0.33;;;;;10.57;100.00;101886.22;5095776;27;45815;-78
2023/03/27 08:23:29;;;;;;;;;1.00;0.00;;;;;10.83;100.00;101911.63;5112968;27;45953;-79
2023/03/27 08:25:59;;;;;;;;;0.67;0.33;;;;;10.95;100.00;101923.88;5109074;27;45669;-80
2023/03/27 08:28:28;;;;;;;;;1.00;1.00;;;;;10.92;100.00;101922.34;5070826;27;45870;-79
2023/03/27 08:30:54;;;;;;;;;0.33;0.33;;;;;10.92;98.54;101930.59;5086410;27;45589;-79
2023/03/27 08:33:21;;;;;;;;;1.00;1.00;;;;;11.10;99.46;101935.78;5084836;27;46552;-80
2023/03/27 08:35:48;;;;;;;;;3.00;1.00;;;;;11.19;100.00;101933.81;5082551;27;46057;-80
2023/03/27 08:38:14;;;;;;;;;1.00;1.00;;;;;11.34;100.00;101939.38;5089341;27;45615;-80
2023/03/27 08:40:46;;;;;;;;;0.00;0.00;;;;;11.54;100.00;101944.34;5065532;27;45942;-79
2023/03/27 08:43:17;;;;;;;;;1.67;1.67;;;;;11.75;100.00;101950.00;5089969;27;45715;-79
2023/03/27 08:45:54;;;;;;;;;1.33;1.33;;;;;11.69;99.96;101945.25;5070079;27;45545;-81
2023/03/27 08:48:29;;;;;;;;;2.33;1.00;;;;;11.62;95.31;101949.78;5079568;27;45921;-80
2023/03/27 08:50:57;;;;;;;;;4.33;2.00;;;;;11.76;100.00;101957.19;5083181;27;45463;-79
2023/03/27 08:53:29;;;;;;;;;5.00;2.00;;;;;11.79;100.00;101966.97;5072062;27;46608;-79
2023/03/27 08:55:55;;;;;;;;;3.00;2.00;;;;;11.71;99.45;101969.81;5085232;27;46223;-79
2023/03/27 08:58:21;;;;;;;;;0.67;0.00;;;;;11.66;99.46;101964.84;5074013;27;45544;-79
2023/03/27 09:00:58;;;;;;;;;1.00;1.00;;;;;11.57;99.77;101968.69;5075365;27;45893;-79
2023/03/27 09:03:31;;;;;;;;;1.67;1.67;;;;;11.51;98.43;101963.94;5067431;27;46049;-80
2023/03/27 09:06:15;;;;;;;;;2.00;2.00;;;;;11.35;98.47;101960.31;5070437;27;47961;-77
2023/03/27 09:08:55;;;;;;;;;3.00;1.00;;;;;11.49;98.09;101989.69;5090379;27;45711;-77
2023/03/27 09:11:35;;;;;;;;;1.00;1.00;;;;;11.74;97.87;101986.75;5090560;27;45564;-77
2023/03/27 09:14:14;;;;;;;;;1.00;1.00;;;;;11.83;96.56;101993.03;5069131;27;46378;-77
2023/03/27 09:16:48;;;;;;;;;1.67;1.67;;;;;12.15;97.22;102005.59;5091088;27;46283;-77
2023/03/27 09:19:32;;;;;;;;;1.00;1.00;;;;;13.21;94.74;102005.28;5065721;27;45868;-80
2023/03/27 09:22:01;;;;;;;;;2.00;1.00;;;;;13.39;90.38;102004.00;5091348;27;45350;-79
2023/03/27 09:24:55;;;;;;;;;2.33;0.00;;;;;13.48;91.45;102007.50;5077435;27;46625;-76
2023/03/27 09:27:31;;;;;;;;;1.00;1.00;;;;;13.92;86.85;102009.13;5086513;27;47923;-76
2023/03/27 09:30:15;;;;;;;;;2.00;0.00;;;;;14.75;81.79;102005.66;5078266;27;45710;-75
2023/03/27 09:32:42;;;;;;;;;0.00;0.00;;;;;15.28;81.00;101986.47;5087486;27;45893;-77
2023/03/27 09:35:12;;;;;;;;;2.33;1.00;;;;;15.36;76.64;102000.09;5068020;28;46710;-76
2023/03/27 09:37:38;;;;;;;;;1.33;1.00;;;;;15.31;77.75;102010.94;5067866;27;46176;-76
2023/03/27 09:40:12;;;;;;;;;1.00;0.00;;;;;14.99;73.62;101985.75;5091486;27;45795;-78
2023/03/27 09:42:40;;;;;;;;;0.00;0.00;;;;;14.91;72.97;102016.34;5090075;27;46674;-77
2023/03/27 09:45:08;;;;;;;;;1.00;1.00;;;;;14.87;72.65;102019.72;5090562;27;45488;-77
2023/03/27 09:47:40;;;;;;;;;1.00;0.00;;;;;15.24;70.24;102018.38;5093264;27;45678;-77
2023/03/27 09:50:26;;;;;;;;;0.33;0.33;;;;;15.48;68.80;102024.38;5094562;27;45880;-77
2023/03/27 09:53:28;;;;;;;;;1.00;1.00;;;;;15.70;68.57;102031.41;5073203;27;45764;-78
2023/03/27 09:56:00;;;;;;;;;0.33;0.00;;;;;15.76;66.88;102031.63;5091005;27;45971;-78
2023/03/27 09:58:34;;;;;;;;;0.00;0.00;;;;;16.02;65.61;102019.75;5087664;27;47372;-78
2023/03/27 10:01:44;;;;;;;;;0.67;0.67;;;;;17.57;65.14;102018.91;5090734;27;45463;-78
2023/03/27 10:04:49;;;;;;;;;;;;;;;;;;;;;
2023/03/27 10:07:40;;;;;;;;;0.00;0.00;;;;;21.42;55.60;102018.31;5082473;27;73262;-77
2023/03/27 10:10:36;;;;;;;;;0.00;0.00;;;;;22.46;48.09;102013.34;5093120;27;46301;-78
2023/03/27 10:20:32;;;;;;;;;0.00;0.00;;;;;23.77;37.63;101991.88;4961047;28;45962;-78
2023/03/27 10:24:02;;;;;;;;;;;;;;;;;;;;;
2023/03/27 10:26:49;;;;;;;;;0.00;0.00;;;;;23.71;37.11;102004.16;5006716;28;72840;-77
2023/03/27 10:30:16;;;;;;;;;0.00;0.00;;;;;23.75;37.21;101977.28;4988097;28;45682;-80
2023/03/27 10:40:08;;;;;;;;;0.75;0.75;;;;;26.80;34.48;102001.25;4988444;28;45518;-82
2023/03/27 10:46:03;;;;;;;;;;;;;;;;;;;;;
2023/03/27 10:52:25;;;;;;;;;0.00;0.00;;;;;27.23;31.28;102016.53;5030799;28;45840;-79
2023/03/27 11:14:25;;;;;;;;;0.00;0.00;;;;;21.20;32.29;102027.41;4908203;28;45518;-81
2023/03/27 11:16:39;;;;;;;;;;;;;;;;;;;;;
2023/03/27 11:19:54;;;;;;;;;;;;;;;;;;;;;
2023/03/27 11:30:41;;;;;;;;;;;;;;;;;;;;;
2023/03/27 11:37:27;;;;;;;;;2.00;1.00;;;;;15.79;41.76;102069.94;4888324;28;45761;-78
2023/03/27 11:40:19;;;;;;;;;2.33;0.00;;;;;15.62;42.27;102067.56;5035068;28;45543;-78
2023/03/27 11:42:47;;;;;;;;;2.00;1.00;;;;;15.31;41.41;102049.63;5085090;27;45514;-78
2023/03/27 11:45:26;;;;;;;;;1.00;1.00;;;;;15.33;41.27;102054.97;5082274;27;45354;-77
2023/03/27 11:48:32;;;;;;;;;0.00;0.00;;;;;15.16;43.28;102057.22;5071823;28;45506;-79
2023/03/27 11:51:13;;;;;;;;;2.67;1.00;;;;;15.61;43.73;102070.53;5066846;27;45927;-77
2023/03/27 11:57:57;;;;;;;;;1.33;1.33;;;;;15.86;43.93;102066.13;4951032;28;45849;-80
2023/03/27 12:00:31;;;;;;;;;0.00;0.00;;;;;15.88;43.16;102065.91;5027298;28;45416;-80
2023/03/27 12:03:18;;;;;;;;;1.33;1.00;;;;;15.77;42.57;102072.06;5051588;28;46193;-79
2023/03/27 12:06:08;;;;;;;;;0.00;0.00;;;;;15.56;42.48;102065.63;5073343;28;45741;-78
2023/03/27 12:08:45;;;;;;;;;0.00;0.00;;;;;15.46;43.30;102077.06;5058051;28;45473;-78
2023/03/27 12:11:29;;;;;;;;;1.67;0.00;;;;;15.30;44.06;102022.19;5065373;27;45599;-80
2023/03/27 12:14:57;;;;;;;;;1.00;1.00;;;;;15.50;43.51;102080.28;5067330;27;45745;-80
2023/03/27 12:18:09;;;;;;;;;0.00;0.00;;;;;15.22;42.62;102083.19;4963164;28;45742;-76
2023/03/27 12:21:12;;;;;;;;;1.00;0.00;;;;;14.79;43.90;102073.22;4959041;28;45523;-76
2023/03/27 12:23:51;;;;;;;;;1.00;1.00;;;;;14.99;43.85;102078.84;4969596;28;45456;-77
2023/03/27 12:27:18;;;;;;;;;0.00;0.00;;;;;15.12;44.58;102086.31;4969708;28;45602;-77
2023/03/27 12:30:10;;;;;;;;;1.00;1.00;;;;;15.03;45.13;102032.31;4941163;28;45684;-76
2023/03/27 12:33:17;;;;;;;;;1.67;0.67;;;;;15.35;43.88;102080.47;4988869;28;46086;-78
2023/03/27 12:36:39;;;;;;;;;;;;;;;;;;;;;
2023/03/27 12:39:34;;;;;;;;;2.00;0.00;;;;;14.89;44.92;102015.69;5061504;28;73294;-79
2023/03/27 12:42:37;;;;;;;;;0.00;0.00;;;;;15.05;45.53;102071.66;5084434;27;46136;-80
2023/03/27 12:46:01;;;;;;;;;;;;;;;;;;;;;
2023/03/27 12:48:40;;;;;;;;;1.00;1.00;;;;;15.10;47.19;102016.59;5072626;27;68739;-78
2023/03/27 12:51:41;;;;;;;;;0.00;0.00;;;;;15.57;48.32;102063.72;5057598;28;46625;-76
2023/03/27 12:55:10;;;;;;;;;0.00;0.00;;;;;15.55;45.01;102077.75;5041945;28;46050;-79
2023/03/27 12:57:56;;;;;;;;;0.00;0.00;;;;;14.90;44.63;102033.97;5072032;27;45446;-79
2023/03/27 13:00:42;;;;;;;;;0.00;0.00;;;;;15.00;45.30;102081.41;5054108;28;44968;-80
2023/03/27 13:04:33;;;;;;;;;1.00;0.00;;;;;15.00;45.70;102077.81;5080341;28;45310;-79
2023/03/27 13:07:44;;;;;;;;;1.00;1.00;;;;;14.97;45.21;102073.53;5070775;28;45297;-81